createdAt,value
2022-10-05T00:03:22.626Z,15.62
2022-10-05T00:08:34.108Z,15.48
2022-10-05T00:13:36.632Z,15.37
2022-10-05T00:18:40.109Z,15.30
2022-10-05T00:23:42.801Z,15.16
2022-10-05T00:28:45.899Z,15.01
2022-10-05T00:33:48.538Z,15.00
2022-10-05T00:38:51.061Z,15.01
2022-10-05T00:44:31.010Z,15.10
2022-10-05T00:49:55.432Z,14.98
2022-10-05T00:55:22.634Z,14.96
2022-10-05T01:00:26.817Z,14.98
2022-10-05T01:05:51.008Z,15.00
2022-10-05T01:11:04.083Z,14.85
2022-10-05T01:16:14.766Z,14.57
2022-10-05T01:21:25.497Z,14.71
2022-10-05T01:26:46.812Z,14.72
2022-10-05T01:32:11.284Z,14.37
2022-10-05T01:37:32.613Z,14.32
2022-10-05T01:42:56.630Z,14.51
2022-10-05T01:48:09.577Z,14.76
2022-10-05T01:53:31.753Z,14.88
2022-10-05T01:59:16.182Z,14.92
2022-10-05T02:04:56.979Z,14.96
2022-10-05T02:10:18.084Z,14.91
2022-10-05T02:15:27.224Z,14.85
2022-10-05T02:20:34.260Z,15.02
2022-10-05T02:25:41.953Z,14.91
2022-10-05T02:30:54.173Z,14.51
2022-10-05T02:36:31.742Z,14.55
2022-10-05T02:41:44.790Z,14.63
2022-10-05T02:46:57.854Z,14.64
2022-10-05T02:52:38.556Z,14.61
2022-10-05T02:57:53.105Z,14.22
2022-10-05T03:03:23.570Z,13.98
2022-10-05T03:08:34.792Z,14.03
2022-10-05T03:13:55.789Z,14.34
2022-10-05T03:19:23.093Z,14.35
2022-10-05T03:24:28.237Z,14.32
2022-10-05T03:29:54.538Z,14.25
2022-10-05T03:35:07.248Z,14.34
2022-10-05T03:40:34.470Z,14.58
2022-10-05T03:45:48.748Z,14.67
2022-10-05T03:51:01.424Z,14.63
2022-10-05T03:56:14.541Z,14.73
2022-10-05T04:01:22.570Z,14.76
2022-10-05T04:06:38.415Z,14.66
2022-10-05T04:12:18.422Z,14.64
2022-10-05T04:17:34.204Z,14.59
2022-10-05T04:22:47.670Z,14.63
2022-10-05T04:28:15.552Z,14.62
2022-10-05T04:33:18.539Z,14.64
2022-10-05T04:39:06.105Z,14.61
2022-10-05T04:44:27.275Z,14.62
2022-10-05T04:49:29.578Z,14.64
2022-10-05T04:54:50.570Z,14.62
2022-10-05T05:00:11.897Z,14.53
2022-10-05T05:05:16.958Z,14.68
2022-10-05T05:10:28.429Z,14.71
2022-10-05T05:15:40.148Z,14.62
2022-10-05T05:20:50.219Z,14.84
2022-10-05T05:26:00.644Z,15.02
2022-10-05T05:31:19.987Z,15.19
2022-10-05T05:36:39.853Z,15.28
2022-10-05T05:41:53.480Z,14.94
2022-10-05T05:47:04.928Z,14.74
2022-10-05T05:52:22.206Z,15.04
2022-10-05T05:57:34.248Z,15.55
2022-10-05T06:02:46.307Z,15.93
2022-10-05T06:07:53.796Z,16.21
2022-10-05T06:13:03.013Z,16.41
2022-10-05T06:18:29.798Z,16.55
2022-10-05T06:23:57.754Z,16.57
2022-10-05T06:29:05.617Z,16.61
2022-10-05T06:34:38.291Z,16.65
2022-10-05T06:40:23.814Z,16.63
2022-10-05T06:45:41.671Z,16.68
2022-10-05T06:50:56.067Z,16.76
2022-10-05T06:56:26.675Z,16.92
2022-10-05T07:02:06.609Z,16.91
2022-10-05T07:07:23.601Z,15.78
2022-10-05T07:12:39.152Z,16.75
2022-10-05T07:18:12.388Z,17.29
2022-10-05T07:23:35.365Z,17.70
2022-10-05T07:29:02.091Z,18.01
2022-10-05T07:34:20.358Z,17.61
2022-10-05T07:40:00.099Z,17.10
2022-10-05T07:45:28.084Z,17.68
2022-10-05T07:50:58.567Z,17.42
2022-10-05T07:56:14.536Z,16.61
2022-10-05T08:01:24.649Z,17.77
2022-10-05T08:06:35.727Z,18.44
2022-10-05T08:11:53.297Z,17.67
2022-10-05T08:17:00.133Z,17.78
2022-10-05T08:22:09.738Z,18.34
2022-10-05T08:27:20.614Z,18.07
2022-10-05T08:32:25.918Z,16.86
2022-10-05T08:37:35.536Z,17.68
2022-10-05T08:42:58.697Z,18.78
2022-10-05T08:48:25.741Z,18.45
2022-10-05T08:53:56.910Z,17.51
2022-10-05T08:59:08.254Z,18.33
2022-10-05T09:04:41.145Z,18.08
2022-10-05T09:09:47.192Z,16.60
2022-10-05T09:15:24.847Z,16.57
2022-10-05T09:20:30.768Z,17.78
2022-10-05T09:26:11.026Z,18.39
2022-10-05T09:31:26.293Z,17.95
2022-10-05T09:36:47.456Z,16.66
2022-10-05T09:42:19.691Z,16.89
2022-10-05T09:47:59.895Z,18.26
2022-10-05T09:53:40.542Z,18.30
2022-10-05T09:59:07.296Z,17.46
2022-10-05T10:04:48.432Z,18.24
2022-10-05T10:09:59.679Z,18.37
2022-10-05T10:15:39.799Z,17.39
2022-10-05T10:21:19.940Z,18.08
2022-10-05T10:26:48.847Z,18.80
2022-10-05T10:32:06.651Z,18.05
2022-10-05T10:37:17.913Z,18.93
2022-10-05T10:42:39.400Z,19.33
2022-10-05T10:48:00.685Z,18.27
2022-10-05T10:53:41.786Z,18.01
2022-10-05T10:59:03.181Z,19.28
2022-10-05T11:04:35.210Z,19.56
2022-10-05T11:10:02.809Z,18.41
2022-10-05T11:15:40.313Z,18.88
2022-10-05T11:20:48.869Z,19.61
2022-10-05T11:26:29.131Z,18.66
2022-10-05T11:32:09.565Z,17.96
2022-10-05T11:37:49.835Z,19.03
2022-10-05T11:43:25.067Z,19.46
2022-10-05T11:48:51.266Z,18.45
2022-10-05T11:54:03.083Z,18.06
2022-10-05T11:59:34.608Z,19.24
2022-10-05T12:05:06.181Z,19.70
2022-10-05T12:10:36.821Z,18.73
2022-10-05T12:16:01.615Z,18.09
2022-10-05T12:21:27.625Z,18.45
2022-10-05T12:26:41.789Z,19.00
2022-10-05T12:32:08.971Z,18.18
2022-10-05T12:37:16.384Z,17.69
2022-10-05T12:42:41.617Z,17.48
2022-10-05T12:47:53.983Z,17.82
2022-10-05T12:53:20.633Z,19.14
2022-10-05T12:58:41.985Z,19.48
2022-10-05T13:04:10.555Z,18.60
2022-10-05T13:09:29.196Z,18.08
2022-10-05T13:14:34.812Z,17.90
2022-10-05T13:20:07.479Z,19.08
2022-10-05T13:25:18.703Z,19.34
2022-10-05T13:30:22.064Z,18.44
2022-10-05T13:35:40.186Z,17.91
2022-10-05T13:40:53.389Z,17.54
2022-10-05T13:46:07.312Z,17.94
2022-10-05T13:51:47.545Z,19.27
2022-10-05T13:56:58.789Z,19.33
2022-10-05T14:02:01.303Z,18.30
2022-10-05T14:07:41.578Z,17.73
2022-10-05T14:12:45.748Z,17.28
2022-10-05T14:17:52.473Z,16.99
2022-10-05T14:22:59.922Z,17.34
2022-10-05T14:28:11.936Z,18.74
2022-10-05T14:33:16.926Z,19.56
2022-10-05T14:38:29.435Z,19.53
2022-10-05T14:43:32.731Z,18.42
2022-10-05T14:48:46.753Z,17.68
2022-10-05T14:54:14.800Z,17.15
2022-10-05T14:59:36.063Z,18.01
2022-10-05T15:04:49.865Z,18.84
2022-10-05T15:10:30.163Z,18.73
2022-10-05T15:16:01.363Z,17.41
2022-10-05T15:21:42.282Z,16.61
2022-10-05T15:26:48.091Z,17.25
2022-10-05T15:32:16.772Z,18.10
2022-10-05T15:37:28.403Z,18.66
2022-10-05T15:42:38.441Z,18.53
2022-10-05T15:48:03.073Z,17.28
2022-10-05T15:53:19.908Z,16.38
2022-10-05T15:58:31.209Z,15.77
2022-10-05T16:04:01.040Z,15.85
2022-10-05T16:09:11.531Z,16.99
2022-10-05T16:14:32.465Z,17.47
2022-10-05T16:19:54.292Z,17.68
2022-10-05T16:25:11.557Z,17.84
2022-10-05T16:30:20.898Z,17.87
2022-10-05T16:35:55.317Z,16.69
2022-10-05T16:41:38.061Z,15.43
2022-10-05T16:46:49.363Z,15.39
2022-10-05T16:51:57.888Z,16.35
2022-10-05T16:57:17.615Z,16.85
2022-10-05T17:02:45.621Z,16.99
2022-10-05T17:08:16.944Z,17.12
2022-10-05T17:13:57.670Z,17.38
2022-10-05T17:19:20.739Z,17.56
2022-10-05T17:24:42.007Z,17.66
2022-10-05T17:29:47.481Z,17.65
2022-10-05T17:35:18.553Z,17.67
2022-10-05T17:40:33.648Z,17.56
2022-10-05T17:45:38.137Z,16.98
2022-10-05T17:51:07.384Z,15.56
2022-10-05T17:56:09.992Z,15.19
2022-10-05T18:01:26.766Z,16.22
2022-10-05T18:06:34.335Z,16.75
2022-10-05T18:11:40.884Z,17.00
2022-10-05T18:17:12.559Z,17.17
2022-10-05T18:22:18.379Z,17.32
2022-10-05T18:27:41.921Z,17.39
2022-10-05T18:32:53.855Z,17.50
2022-10-05T18:38:06.855Z,17.08
2022-10-05T18:43:36.485Z,15.59
2022-10-05T18:48:57.940Z,15.26
2022-10-05T18:54:38.283Z,16.17
2022-10-05T18:59:54.778Z,16.64
2022-10-05T19:05:18.967Z,16.92
2022-10-05T19:11:11.343Z,17.11
2022-10-05T19:16:38.604Z,17.27
2022-10-05T19:22:12.371Z,17.42
2022-10-05T19:27:55.705Z,17.44
2022-10-05T19:33:17.460Z,17.50
2022-10-05T19:38:31.882Z,17.57
2022-10-05T19:43:37.996Z,17.57
2022-10-05T19:48:49.815Z,17.55
2022-10-05T19:54:05.020Z,17.50
2022-10-05T19:59:13.298Z,17.48
2022-10-05T20:04:36.026Z,17.37
2022-10-05T20:10:18.504Z,17.22
2022-10-05T20:15:43.966Z,17.08
2022-10-05T20:20:49.290Z,17.07
2022-10-05T20:26:11.371Z,17.07
2022-10-05T20:31:18.477Z,17.02
2022-10-05T20:36:21.035Z,16.77
2022-10-05T20:41:23.563Z,16.79
2022-10-05T20:46:26.129Z,17.03
2022-10-05T20:51:29.237Z,16.92
2022-10-05T20:56:31.865Z,16.85
2022-10-05T21:01:34.431Z,16.87
2022-10-05T21:06:36.922Z,16.88
2022-10-05T21:11:39.655Z,16.90
2022-10-05T21:16:43.314Z,16.88
2022-10-05T21:21:46.421Z,16.83
2022-10-05T21:26:49.385Z,16.85
2022-10-05T21:31:52.277Z,16.85
2022-10-05T21:36:54.822Z,16.82
2022-10-05T21:41:57.241Z,16.84
2022-10-05T21:47:00.531Z,16.81
2022-10-05T21:52:03.381Z,16.83
2022-10-05T21:57:06.813Z,16.80
2022-10-05T22:02:09.333Z,16.77
2022-10-05T22:07:19.324Z,16.75
2022-10-05T22:12:23.466Z,16.71
2022-10-05T22:17:29.101Z,16.64
2022-10-05T22:22:33.017Z,16.64
2022-10-05T22:27:35.798Z,16.66
2022-10-05T22:32:38.265Z,16.61
2022-10-05T22:37:40.653Z,16.62
2022-10-05T22:42:43.150Z,16.65
2022-10-05T22:47:45.764Z,16.70
2022-10-05T22:52:52.423Z,16.75
2022-10-05T22:57:54.954Z,16.61
2022-10-05T23:02:57.426Z,16.58
2022-10-05T23:08:02.133Z,16.52
2022-10-05T23:13:04.906Z,16.42
2022-10-05T23:18:07.354Z,16.31
2022-10-05T23:23:10.184Z,16.28
2022-10-05T23:28:12.698Z,16.22
2022-10-05T23:33:15.133Z,16.15
2022-10-05T23:38:17.753Z,16.22
2022-10-05T23:43:20.304Z,16.24
2022-10-05T23:48:22.914Z,16.20
2022-10-05T23:53:25.575Z,16.24
2022-10-05T23:58:28.539Z,16.27
